Time,TemperatureF,DewpointF,PressureIn,WindDirection,WindDirectionDegrees,WindSpeedMPH,WindSpeedGustMPH,Humidity,HourlyPrecipIn,Conditions,Clouds,dailyrainin,SoftwareType,DateUTC
2013-04-20 00:04:00,63.9,-38.5,29.52,SE,135,0.0,-999.0,1,-99.99,,,0.00,Acu-Link.com,2013-04-20 04:04:00,
2013-04-20 00:19:00,63.7,-38.6,29.53,South,180,0.0,-999.0,1,-99.99,,,0.00,Acu-Link.com,2013-04-20 04:19:00,
2013-04-20 00:35:00,63.9,-38.5,29.52,SSE,157,0.0,-999.0,1,-99.99,,,0.00,Acu-Link.com,2013-04-20 04:35:00,
2013-04-20 00:50:00,63.9,-38.5,29.52,ESE,112,0.0,-999.0,1,-99.99,,,0.01,Acu-Link.com,2013-04-20 04:50:00,
2013-04-20 01:05:00,59.5,-41.2,29.55,ESE,112,3.2,-999.0,1,-99.99,,,0.03,Acu-Link.com,2013-04-20 05:05:00,
2013-04-20 01:21:00,56.3,-43.1,29.55,SW,225,0.0,-999.0,1,-99.99,,,0.06,Acu-Link.com,2013-04-20 05:21:00,
2013-04-20 01:36:00,55.6,37.3,29.54,West,270,1.7,-999.0,50,-99.99,,,0.06,Acu-Link.com,2013-04-20 05:36:00,
2013-04-20 01:51:00,54.7,-44.1,29.53,West,270,2.2,-999.0,1,-99.99,,,0.06,Acu-Link.com,2013-04-20 05:51:00,
2013-04-20 02:07:00,54.1,29.7,29.53,WSW,247,0.0,-999.0,39,-99.99,,,0.06,Acu-Link.com,2013-04-20 06:07:00,
2013-04-20 02:22:00,54.0,-44.5,29.56,WNW,292,0.0,-999.0,1,-99.99,,,0.06,Acu-Link.com,2013-04-20 06:22:00,
2013-04-20 02:37:00,53.1,-6.6,29.52,North,0,0.0,-999.0,8,-99.99,,,0.07,Acu-Link.com,2013-04-20 06:37:00,
2013-04-20 02:53:00,52.9,-45.2,29.51,West,270,0.0,-999.0,1,-99.99,,,0.07,Acu-Link.com,2013-04-20 06:53:00,
2013-04-20 03:08:00,52.3,-45.5,29.51,SE,135,0.0,-999.0,1,-99.99,,,0.07,Acu-Link.com,2013-04-20 07:08:00,
2013-04-20 03:23:00,52.3,-45.5,29.56,WSW,247,0.0,-999.0,1,-99.99,,,0.09,Acu-Link.com,2013-04-20 07:23:00,
2013-04-20 03:39:00,52.7,-45.3,29.56,SSW,202,0.0,-999.0,1,-99.99,,,0.11,Acu-Link.com,2013-04-20 07:39:00,
2013-04-20 03:54:00,53.1,-45.1,29.56,West,270,0.0,-999.0,1,-99.99,,,0.13,Acu-Link.com,2013-04-20 07:54:00,
2013-04-20 04:09:00,53.1,-45.1,29.54,SW,225,0.0,-999.0,1,-99.99,,,0.14,Acu-Link.com,2013-04-20 08:09:00,
2013-04-20 04:25:00,53.1,-45.1,29.59,SW,225,0.0,-999.0,1,-99.99,,,0.15,Acu-Link.com,2013-04-20 08:25:00,
2013-04-20 04:40:00,50.7,-46.5,29.58,East,90,1.1,-999.0,1,-99.99,,,0.16,Acu-Link.com,2013-04-20 08:40:00,
2013-04-20 04:55:00,49.8,-47.1,29.60,SW,225,0.0,-999.0,1,-99.99,,,0.18,Acu-Link.com,2013-04-20 08:55:00,
2013-04-20 05:10:00,46.6,-49.0,29.59,NNE,22,2.2,-999.0,1,-99.99,,,0.18,Acu-Link.com,2013-04-20 09:10:00,
2013-04-20 05:26:00,46.0,-49.4,29.62,SW,225,3.2,-999.0,1,-99.99,,,0.18,Acu-Link.com,2013-04-20 09:26:00,
2013-04-20 05:41:00,45.0,-50.0,29.65,NNW,337,0.0,-999.0,1,-99.99,,,0.19,Acu-Link.com,2013-04-20 09:41:00,
2013-04-20 05:56:00,44.4,-50.4,29.66,NNE,22,0.0,-999.0,1,-99.99,,,0.20,Acu-Link.com,2013-04-20 09:56:00,
2013-04-20 06:12:00,44.2,-50.5,29.66,NW,315,0.0,-999.0,1,-99.99,,,0.20,Acu-Link.com,2013-04-20 10:12:00,
2013-04-20 06:27:00,44.8,-50.1,29.69,NE,45,0.0,-999.0,1,-99.99,,,0.20,Acu-Link.com,2013-04-20 10:27:00,
2013-04-20 06:42:00,45.1,-50.0,29.69,South,180,1.1,-999.0,1,-99.99,,,0.20,Acu-Link.com,2013-04-20 10:42:00,
2013-04-20 06:58:00,45.0,-50.0,29.70,West,270,0.0,-999.0,1,-99.99,,,0.21,Acu-Link.com,2013-04-20 10:58:00,
2013-04-20 07:13:00,45.5,-49.7,29.72,ESE,112,0.0,-999.0,1,-99.99,,,0.22,Acu-Link.com,2013-04-20 11:13:00,
2013-04-20 07:28:00,45.3,-49.8,29.70,WSW,247,0.0,-999.0,1,-99.99,,,0.22,Acu-Link.com,2013-04-20 11:28:00,
2013-04-20 07:43:00,45.5,-49.7,29.72,NE,45,0.0,-999.0,1,-99.99,,,0.22,Acu-Link.com,2013-04-20 11:43:00,
2013-04-20 07:59:00,45.9,-49.5,29.70,West,270,0.0,-999.0,1,-99.99,,,0.22,Acu-Link.com,2013-04-20 11:59:00,
2013-04-20 08:14:00,46.4,-49.2,29.72,East,90,0.0,-999.0,1,-99.99,,,0.22,Acu-Link.com,2013-04-20 12:14:00,
2013-04-20 08:29:00,46.8,-48.9,29.72,West,270,4.2,-999.0,1,-99.99,,,0.22,Acu-Link.com,2013-04-20 12:29:00,
2013-04-20 08:45:00,47.1,-48.7,29.73,SW,225,0.0,-999.0,1,-99.99,,,0.22,Acu-Link.com,2013-04-20 12:45:00,
2013-04-20 09:00:00,48.7,-47.7,29.72,West,270,2.2,-999.0,1,-99.99,,,0.22,Acu-Link.com,2013-04-20 13:00:00,
2013-04-20 09:15:00,50.0,-46.9,29.72,ENE,67,0.0,-999.0,1,-99.99,,,0.22,Acu-Link.com,2013-04-20 13:15:00,
2013-04-20 09:31:00,50.2,-46.8,29.73,WSW,247,5.3,-999.0,1,-99.99,,,0.22,Acu-Link.com,2013-04-20 13:31:00,
2013-04-20 09:46:00,51.3,-46.2,29.74,WSW,247,0.0,-999.0,1,-99.99,,,0.22,Acu-Link.com,2013-04-20 13:46:00,
2013-04-20 10:01:00,51.6,14.0,29.76,SW,225,4.2,-999.0,22,-99.99,,,0.22,Acu-Link.com,2013-04-20 14:01:00,
2013-04-20 10:16:00,52.5,35.9,29.74,SSW,202,1.1,-999.0,53,-99.99,,,0.22,Acu-Link.com,2013-04-20 14:16:00,
2013-04-20 10:31:00,53.1,39.6,29.77,SW,225,0.0,-999.0,60,-99.99,,,0.22,Acu-Link.com,2013-04-20 14:31:00,
2013-04-20 10:47:00,54.5,44.5,29.78,SSW,202,1.1,-999.0,69,-99.99,,,0.22,Acu-Link.com,2013-04-20 14:47:00,
2013-04-20 11:02:00,54.7,44.7,29.77,WSW,247,0.0,-999.0,69,-99.99,,,0.22,Acu-Link.com,2013-04-20 15:02:00,
2013-04-20 11:17:00,54.1,43.8,29.78,SSW,202,3.7,-999.0,68,-99.99,,,0.22,Acu-Link.com,2013-04-20 15:17:00,
2013-04-20 11:33:00,54.7,44.7,29.80,West,270,4.7,-999.0,69,-99.99,,,0.22,Acu-Link.com,2013-04-20 15:33:00,
2013-04-20 11:48:00,53.6,36.9,29.81,West,270,3.2,-999.0,53,-99.99,,,0.22,Acu-Link.com,2013-04-20 15:48:00,
2013-04-20 12:03:00,52.7,34.1,29.79,SSW,202,7.3,-999.0,49,-99.99,,,0.22,Acu-Link.com,2013-04-20 16:03:00,
2013-04-20 12:18:00,52.5,34.4,29.81,SW,225,3.2,-999.0,50,-99.99,,,0.22,Acu-Link.com,2013-04-20 16:18:00,
2013-04-20 12:34:00,54.5,36.7,29.79,West,270,0.0,-999.0,51,-99.99,,,0.22,Acu-Link.com,2013-04-20 16:34:00,
2013-04-20 12:49:00,54.1,36.9,29.80,West,270,0.0,-999.0,52,-99.99,,,0.22,Acu-Link.com,2013-04-20 16:49:00,
2013-04-20 13:04:00,55.0,38.2,29.79,WSW,247,1.1,-999.0,53,-99.99,,,0.22,Acu-Link.com,2013-04-20 17:04:00,
2013-04-20 13:19:00,55.8,38.9,29.80,SW,225,0.0,-999.0,53,-99.99,,,0.22,Acu-Link.com,2013-04-20 17:19:00,
2013-04-20 13:35:00,55.6,37.8,29.81,SSW,202,8.3,-999.0,51,-99.99,,,0.22,Acu-Link.com,2013-04-20 17:35:00,
2013-04-20 13:50:00,58.8,39.2,29.81,WNW,292,1.1,-999.0,48,-99.99,,,0.22,Acu-Link.com,2013-04-20 17:50:00,
2013-04-20 14:05:00,56.7,38.3,29.80,ESE,112,4.2,-999.0,50,-99.99,,,0.22,Acu-Link.com,2013-04-20 18:05:00,
2013-04-20 14:21:00,58.8,39.2,29.79,West,270,0.0,-999.0,48,-99.99,,,0.22,Acu-Link.com,2013-04-20 18:21:00,
2013-04-20 14:36:00,59.2,39.0,29.80,WNW,292,4.7,-999.0,47,-99.99,,,0.22,Acu-Link.com,2013-04-20 18:36:00,
2013-04-20 14:51:00,61.3,38.6,29.79,WSW,247,2.7,-999.0,43,-99.99,,,0.22,Acu-Link.com,2013-04-20 18:51:00,
2013-04-20 15:07:00,59.4,38.1,29.80,SW,225,0.0,-999.0,45,-99.99,,,0.22,Acu-Link.com,2013-04-20 19:07:00,
2013-04-20 15:22:00,59.4,38.1,29.80,WSW,247,5.3,-999.0,45,-99.99,,,0.22,Acu-Link.com,2013-04-20 19:22:00,
2013-04-20 15:37:00,59.0,37.1,29.79,WSW,247,2.2,-999.0,44,-99.99,,,0.22,Acu-Link.com,2013-04-20 19:37:00,
2013-04-20 15:52:00,59.4,36.3,29.82,West,270,3.2,-999.0,42,-99.99,,,0.22,Acu-Link.com,2013-04-20 19:52:00,
2013-04-20 16:07:00,60.8,36.3,29.81,WSW,247,0.0,-999.0,40,-99.99,,,0.22,Acu-Link.com,2013-04-20 20:07:00,
2013-04-20 16:23:00,61.5,37.0,29.83,WSW,247,1.1,-999.0,40,-99.99,,,0.22,Acu-Link.com,2013-04-20 20:23:00,
2013-04-20 16:38:00,61.7,36.5,29.84,West,270,2.2,-999.0,39,-99.99,,,0.22,Acu-Link.com,2013-04-20 20:38:00,
2013-04-20 16:53:00,58.6,35.0,29.84,West,270,8.3,-999.0,41,-99.99,,,0.22,Acu-Link.com,2013-04-20 20:53:00,
2013-04-20 17:08:00,58.8,34.5,29.86,SW,225,8.3,-999.0,40,-99.99,,,0.22,Acu-Link.com,2013-04-20 21:08:00,
2013-04-20 17:23:00,58.1,35.1,29.86,West,270,2.2,-999.0,42,-99.99,,,0.22,Acu-Link.com,2013-04-20 21:23:00,
2013-04-20 17:39:00,62.6,36.0,29.86,West,270,4.2,-999.0,37,-99.99,,,0.22,Acu-Link.com,2013-04-20 21:39:00,
2013-04-20 17:54:00,60.8,33.7,29.88,SW,225,9.4,-999.0,36,-99.99,,,0.22,Acu-Link.com,2013-04-20 21:54:00,
2013-04-20 18:09:00,60.4,33.3,29.87,SW,225,0.0,-999.0,36,-99.99,,,0.22,Acu-Link.com,2013-04-20 22:09:00,
2013-04-20 18:24:00,59.4,33.8,29.89,WSW,247,0.0,-999.0,38,-99.99,,,0.22,Acu-Link.com,2013-04-20 22:24:00,
2013-04-20 18:39:00,58.6,33.1,29.90,West,270,0.0,-999.0,38,-99.99,,,0.22,Acu-Link.com,2013-04-20 22:39:00,
2013-04-20 18:55:00,56.8,32.7,29.90,WNW,292,0.0,-999.0,40,-99.99,,,0.22,Acu-Link.com,2013-04-20 22:55:00,
2013-04-20 19:10:00,54.9,31.6,29.91,North,0,2.7,-999.0,41,-99.99,,,0.22,Acu-Link.com,2013-04-20 23:10:00,
2013-04-20 19:25:00,54.0,31.4,29.92,WNW,292,0.0,-999.0,42,-99.99,,,0.22,Acu-Link.com,2013-04-20 23:25:00,
2013-04-20 19:41:00,52.7,32.0,29.93,West,270,0.0,-999.0,45,-99.99,,,0.22,Acu-Link.com,2013-04-20 23:41:00,
2013-04-20 19:56:00,51.8,32.7,29.96,NW,315,0.0,-999.0,48,-99.99,,,0.22,Acu-Link.com,2013-04-20 23:56:00,
2013-04-20 20:11:00,51.1,32.1,29.98,SW,225,1.1,-999.0,48,-99.99,,,0.22,Acu-Link.com,2013-04-21 00:11:00,
2013-04-20 20:26:00,50.4,32.0,29.97,NW,315,0.0,-999.0,49,-99.99,,,0.22,Acu-Link.com,2013-04-21 00:26:00,
2013-04-20 20:41:00,49.8,32.4,30.00,WNW,292,0.0,-999.0,51,-99.99,,,0.22,Acu-Link.com,2013-04-21 00:41:00,
2013-04-20 20:57:00,49.3,31.9,30.00,West,270,0.0,-999.0,51,-99.99,,,0.22,Acu-Link.com,2013-04-21 00:57:00,
2013-04-20 21:12:00,48.9,31.1,30.01,West,270,0.0,-999.0,50,-99.99,,,0.22,Acu-Link.com,2013-04-21 01:12:00,
2013-04-20 21:27:00,48.6,31.3,30.02,WSW,247,0.0,-999.0,51,-99.99,,,0.22,Acu-Link.com,2013-04-21 01:27:00,
2013-04-20 21:43:00,48.4,31.6,30.05,West,270,0.0,-999.0,52,-99.99,,,0.22,Acu-Link.com,2013-04-21 01:43:00,
2013-04-20 21:58:00,47.8,32.0,30.06,West,270,0.0,-999.0,54,-99.99,,,0.22,Acu-Link.com,2013-04-21 01:58:00,
2013-04-20 22:13:00,47.5,33.0,30.06,SSW,202,5.8,-999.0,57,-99.99,,,0.22,Acu-Link.com,2013-04-21 02:13:00,
2013-04-20 22:29:00,46.9,32.9,30.07,ENE,67,0.0,-999.0,58,-99.99,,,0.22,Acu-Link.com,2013-04-21 02:29:00,
2013-04-20 22:44:00,46.4,32.9,30.08,NNE,22,0.0,-999.0,59,-99.99,,,0.22,Acu-Link.com,2013-04-21 02:44:00,
2013-04-20 22:59:00,45.9,33.2,30.09,North,0,0.0,-999.0,61,-99.99,,,0.22,Acu-Link.com,2013-04-21 02:59:00,
2013-04-20 23:14:00,45.1,32.9,30.12,NW,315,3.2,-999.0,62,-99.99,,,0.22,Acu-Link.com,2013-04-21 03:14:00,
2013-04-20 23:30:00,44.4,33.0,30.10,West,270,0.0,-999.0,64,-99.99,,,0.22,Acu-Link.com,2013-04-21 03:30:00,
2013-04-20 23:45:00,43.0,34.3,30.11,NE,45,0.0,-999.0,71,-99.99,,,0.22,Acu-Link.com,2013-04-21 03:45:00,